9N22DL VNLK-VNLK
Flight info
| Callsign | 9N22DL |
|---|---|
| Flight time | N/A |
| Altitude | 10000 |
| Route | VFR |
| Aircraft | BE58/L-SDGY/S |
Departure
| Time | 2025-05-17 12:47 |
|---|---|
| Airport | Tenzing-Hillary Airport (VNLK) |
Arrival
| Time | N/A |
|---|---|
| Airport | Tenzing-Hillary Airport (VNLK) |
| Time | Latitude | Longitude | Altitude | Speed | Heading |
|---|---|---|---|---|---|
| 2025-05-17 12:28 | 27.68746 | 86.73197 | 9340 ft | 0 kts | 242° |
| 2025-05-17 12:30 | 27.68745 | 86.73183 | 9340 ft | 3 kts | 294° |
| 2025-05-17 12:30 | 27.68796 | 86.73172 | 9340 ft | 0 kts | 236° |
| 2025-05-17 12:31 | 27.68318 | 86.72304 | 9340 ft | 100 kts | 232° |
| 2025-05-17 12:32 | 27.68601 | 86.70931 | 9366 ft | 123 kts | 28° |
| 2025-05-17 12:32 | 27.68532 | 86.72632 | 9355 ft | 98 kts | 64° |
| 2025-05-17 12:33 | 27.68750 | 86.73202 | 9340 ft | 0 kts | 206° |
| 2025-05-17 12:44 | 27.68783 | 86.73171 | 9340 ft | 16 kts | 57° |
| 2025-05-17 12:45 | 27.68074 | 86.71833 | 9238 ft | 127 kts | 238° |
| 2025-05-17 12:45 | 27.67567 | 86.70888 | 9202 ft | 147 kts | 241° |
| 2025-05-17 12:45 | 27.66765 | 86.69008 | 9808 ft | 130 kts | 277° |
| 2025-05-17 12:46 | 27.68817 | 86.67618 | 10527 ft | 113 kts | 343° |
| 2025-05-17 12:46 | 27.69461 | 86.67388 | 10961 ft | 91 kts | 342° |
| 2025-05-17 12:47 | 32.69200 | -16.77795 | 147 ft | 0 kts | 338° |
| 2025-05-17 12:49 | 32.69249 | -16.77842 | 159 ft | 12 kts | 324° |
| 2025-05-17 12:50 | 32.69673 | -16.77563 | 235 ft | 91 kts | 47° |
| 2025-05-17 12:50 | 32.70068 | -16.76936 | 558 ft | 102 kts | 61° |
| 2025-05-17 12:50 | 32.69196 | -16.76783 | 368 ft | 175 kts | 253° |
| 2025-05-17 12:51 | 32.69189 | -16.78124 | 159 ft | 80 kts | 39° |
| 2025-05-17 12:52 | 32.69762 | -16.77059 | 606 ft | 96 kts | 119° |
| 2025-05-17 12:52 | 32.69200 | -16.77795 | 147 ft | 0 kts | 338° |
| 2025-05-17 12:53 | 32.69246 | -16.77816 | 156 ft | 34 kts | 320° |
| 2025-05-17 12:53 | 32.69409 | -16.77897 | 189 ft | 55 kts | 40° |
| 2025-05-17 12:53 | 32.69857 | -16.77723 | 249 ft | 0 kts | 225° |
| 2025-05-17 12:54 | 32.69763 | -16.77376 | 214 ft | 96 kts | 327° |
| 2025-05-17 12:54 | 32.69683 | -16.77359 | 250 ft | 95 kts | 49° |
| 2025-05-17 12:55 | 32.70314 | -16.76922 | 177 ft | 0 kts | 143° |